Time;durP1;ratioP1;P1;durP2;ratioP2;P2;SDS_P1;SDS_P2;PMS_P1;PMS_P2;Temp;Humidity;BMP_temperature;BMP_pressure;BME280_temperature;BME280_humidity;BME280_pressure;Samples;Min_cycle;Max_cycle;Signal;HPM_P1;HPM_P2
2021/11/09 00:02:08;;;;;;;27.63;12.67;;;;;;;5.35;66.77;97452.00;5106184;28;20192;-74
2021/11/09 00:04:46;;;;;;;25.73;14.03;;;;;;;5.56;66.90;97438.34;5104998;28;20299;-71
2021/11/09 00:07:24;;;;;;;27.93;12.33;;;;;;;5.63;66.45;97443.91;5109441;28;20415;-71
2021/11/09 00:09:59;;;;;;;24.13;12.10;;;;;;;5.66;66.11;97439.31;5094961;28;20493;-71
2021/11/09 00:12:30;;;;;;;29.90;12.77;;;;;;;5.73;66.15;97444.88;5111839;28;20419;-71
2021/11/09 00:14:58;;;;;;;22.87;12.93;;;;;;;5.65;66.61;97447.22;5110722;28;20773;-72
2021/11/09 00:17:24;;;;;;;25.30;12.60;;;;;;;5.64;66.61;97446.41;5111928;28;20437;-72
2021/11/09 00:19:50;;;;;;;27.83;13.60;;;;;;;5.50;66.90;97439.63;5110835;28;20531;-73
2021/11/09 00:22:16;;;;;;;26.17;12.47;;;;;;;5.32;67.04;97441.81;5098589;28;20406;-73
2021/11/09 00:24:42;;;;;;;31.40;14.60;;;;;;;5.51;67.55;97448.25;5111498;28;20483;-73
2021/11/09 00:27:09;;;;;;;27.73;14.10;;;;;;;5.61;66.59;97444.03;5114128;28;20253;-74
2021/11/09 00:29:36;;;;;;;22.50;13.10;;;;;;;5.66;66.38;97452.31;5113208;28;20499;-71
2021/11/09 00:32:04;;;;;;;28.20;12.30;;;;;;;5.68;66.36;97449.59;5115158;28;20427;-73
2021/11/09 00:34:29;;;;;;;24.90;12.73;;;;;;;5.58;66.38;97456.44;5113776;28;20423;-72
2021/11/09 00:36:55;;;;;;;21.20;11.70;;;;;;;5.57;66.01;97450.41;5114571;28;20432;-72
2021/11/09 00:39:21;;;;;;;25.60;13.87;;;;;;;5.58;66.25;97456.44;5108839;28;20213;-73
2021/11/09 00:41:46;;;;;;;23.73;13.37;;;;;;;5.60;66.63;97462.34;5099949;28;20270;-73
2021/11/09 00:44:12;;;;;;;26.13;13.07;;;;;;;5.61;66.74;97459.63;5114814;28;20189;-74
2021/11/09 00:46:38;;;;;;;22.37;13.93;;;;;;;5.49;66.77;97463.16;5115529;28;20189;-74
2021/11/09 00:49:04;;;;;;;29.17;13.30;;;;;;;5.59;66.39;97464.13;5100810;28;20278;-75
2021/11/09 00:51:29;;;;;;;22.27;14.43;;;;;;;5.60;66.34;97470.97;5107916;28;20396;-75
2021/11/09 00:53:55;;;;;;;28.30;14.23;;;;;;;5.61;66.34;97466.59;5109594;28;20440;-76
2021/11/09 00:56:21;;;;;;;28.50;13.13;;;;;;;5.48;66.32;97464.09;5114948;28;20169;-75
2021/11/09 00:58:46;;;;;;;20.73;11.80;;;;;;;5.54;66.93;97461.84;5098824;28;20225;-73
2021/11/09 01:01:12;;;;;;;23.33;11.00;;;;;;;5.52;66.09;97466.34;5108005;28;20218;-74
2021/11/09 01:03:38;;;;;;;20.17;12.07;;;;;;;5.47;66.98;97467.63;5116536;28;20215;-74
2021/11/09 01:06:04;;;;;;;21.90;11.23;;;;;;;5.35;66.57;97466.78;5116538;28;20428;-74
2021/11/09 01:08:30;;;;;;;28.03;12.57;;;;;;;5.29;66.65;97455.06;5116198;28;20217;-75
2021/11/09 01:10:57;;;;;;;23.10;11.80;;;;;;;5.34;66.85;97471.13;5115072;28;20275;-77
2021/11/09 01:13:26;;;;;;;22.97;11.47;;;;;;;5.32;66.71;97473.00;5111118;28;20439;-75
2021/11/09 01:15:53;;;;;;;20.33;11.70;;;;;;;5.41;66.92;97474.09;5096087;28;20446;-76
2021/11/09 01:18:31;;;;;;;17.43;12.20;;;;;;;5.47;66.23;97476.28;5106920;28;20451;-75
2021/11/09 01:20:58;;;;;;;24.00;11.30;;;;;;;5.52;66.50;97475.94;5082240;28;20459;-75
2021/11/09 01:23:23;;;;;;;22.10;11.40;;;;;;;5.51;66.02;97472.47;5091519;28;20426;-75
2021/11/09 01:25:49;;;;;;;17.40;10.93;;;;;;;5.58;66.40;97467.66;5092847;28;20524;-74
2021/11/09 01:28:15;;;;;;;16.17;11.13;;;;;;;5.61;66.15;97459.63;5103800;28;20644;-74
2021/11/09 01:30:42;;;;;;;18.33;11.20;;;;;;;5.64;65.75;97472.41;5075128;28;20418;-76
2021/11/09 01:33:09;;;;;;;16.87;11.10;;;;;;;5.44;66.07;97471.28;5106587;28;20173;-74
2021/11/09 01:35:35;;;;;;;19.10;11.63;;;;;;;5.45;66.79;97477.31;5080230;28;20450;-77
2021/11/09 01:38:01;;;;;;;19.97;12.30;;;;;;;5.60;66.24;97475.34;5109949;28;20493;-75
2021/11/09 01:40:26;;;;;;;22.53;11.80;;;;;;;5.63;66.33;97475.94;5097985;28;20465;-77
2021/11/09 01:42:54;;;;;;;22.87;12.10;;;;;;;5.64;66.40;97472.41;5101222;28;20174;-75
2021/11/09 01:45:20;;;;;;;21.27;11.10;;;;;;;5.75;66.36;97468.16;5115447;28;20412;-75
2021/11/09 01:47:47;;;;;;;16.90;11.70;;;;;;;5.80;65.90;97466.03;5106863;28;20427;-75
2021/11/09 01:50:16;;;;;;;18.30;11.40;;;;;;;5.82;66.13;97464.16;5103474;28;20433;-75
2021/11/09 01:52:42;;;;;;;23.33;12.03;;;;;;;5.83;65.98;97461.44;5102110;28;20424;-76
2021/11/09 01:55:11;;;;;;;20.40;11.37;;;;;;;5.91;66.22;97466.06;5097175;28;20415;-76
2021/11/09 01:57:38;;;;;;;17.50;11.27;;;;;;;5.98;66.01;97462.06;5093249;28;20406;-76
2021/11/09 02:00:12;;;;;;;23.97;12.77;;;;;;;5.91;65.58;97453.06;5103976;28;20523;-76
2021/11/09 02:02:38;;;;;;;18.40;10.50;;;;;;;5.92;66.00;97462.50;5098822;28;20445;-74
2021/11/09 02:05:05;;;;;;;22.63;11.93;;;;;;;5.95;66.02;97458.88;5113666;28;20424;-76
2021/11/09 02:07:31;;;;;;;24.37;11.07;;;;;;;5.96;65.38;97456.13;5106924;28;20410;-76
2021/11/09 02:09:57;;;;;;;20.60;11.60;;;;;;;5.96;65.42;97461.34;5097307;28;20481;-76
2021/11/09 02:12:22;;;;;;;22.40;11.57;;;;;;;5.94;65.23;97468.41;5101198;28;20198;-77
2021/11/09 02:14:48;;;;;;;19.37;11.63;;;;;;;5.94;65.51;97460.63;5095931;28;20178;-76
2021/11/09 02:17:15;;;;;;;19.10;11.67;;;;;;;5.98;65.16;97474.25;5111355;28;20182;-76
2021/11/09 02:19:43;;;;;;;16.77;11.23;;;;;;;5.72;65.75;97468.41;5119618;28;20216;-76
2021/11/09 02:22:10;;;;;;;17.07;10.10;;;;;;;5.84;65.94;97472.66;5111510;28;20434;-75
2021/11/09 02:24:36;;;;;;;19.07;11.40;;;;;;;5.94;65.35;97473.63;5088281;28;20418;-74
2021/11/09 02:27:03;;;;;;;22.60;11.37;;;;;;;5.93;65.04;97477.16;5111548;28;20453;-76
2021/11/09 02:29:29;;;;;;;14.73;10.50;;;;;;;6.03;64.89;97481.72;5105503;28;20477;-75
2021/11/09 02:31:56;;;;;;;21.47;11.33;;;;;;;5.99;65.07;97481.06;5100983;28;20419;-74
2021/11/09 02:34:22;;;;;;;26.50;12.70;;;;;;;5.94;64.74;97481.44;5101183;28;20439;-75
2021/11/09 02:36:47;;;;;;;23.57;12.50;;;;;;;6.01;64.94;97486.22;5110014;28;20425;-75
2021/11/09 02:39:14;;;;;;;25.43;11.40;;;;;;;5.97;65.10;97486.41;5085020;28;20219;-77
2021/11/09 02:41:40;;;;;;;26.40;11.53;;;;;;;5.85;65.44;97487.34;5118896;28;20170;-73
2021/11/09 02:44:06;;;;;;;30.27;11.70;;;;;;;5.94;65.63;97499.66;5118682;28;20434;-75
2021/11/09 02:46:51;;;;;;;17.13;11.13;;;;;;;5.79;66.73;97498.22;5117979;28;20246;-75
2021/11/09 02:49:24;;;;;;;23.40;12.27;;;;;;;5.92;65.65;97496.31;5097137;28;20435;-75
2021/11/09 02:52:01;;;;;;;23.93;11.50;;;;;;;5.67;66.18;97498.16;5103826;28;20440;-74
2021/11/09 02:54:36;;;;;;;24.50;11.80;;;;;;;5.89;65.74;97496.56;5112459;28;20433;-75
2021/11/09 02:57:05;;;;;;;24.90;12.23;;;;;;;5.74;65.91;97489.91;5116520;28;20416;-74
2021/11/09 02:59:51;;;;;;;21.97;11.40;;;;;;;5.83;65.91;97491.81;5110552;28;20462;-73
2021/11/09 03:02:32;;;;;;;15.33;10.90;;;;;;;6.05;65.55;97485.03;5117264;28;20507;-73
2021/11/09 03:05:03;;;;;;;26.07;12.43;;;;;;;5.95;65.73;97495.28;5113505;28;20428;-73
2021/11/09 03:07:35;;;;;;;25.03;11.80;;;;;;;5.88;65.78;97486.28;5117143;28;20424;-74
2021/11/09 03:10:12;;;;;;;16.47;10.27;;;;;;;6.10;66.33;97480.31;5108482;28;20432;-73
2021/11/09 03:12:39;;;;;;;18.00;10.67;;;;;;;6.14;65.15;97489.53;5115827;28;20412;-75
2021/11/09 03:15:10;;;;;;;22.50;12.73;;;;;;;6.18;65.63;97474.50;5113833;28;20423;-73
2021/11/09 03:17:48;;;;;;;19.90;11.40;;;;;;;5.99;66.00;97481.97;5101125;28;20435;-73
2021/11/09 03:20:21;;;;;;;26.00;12.10;;;;;;;5.98;65.84;97485.47;5116245;28;20467;-72
2021/11/09 03:47:17;;;;;;;26.47;10.60;;;;;;;5.96;65.13;97476.94;5113308;28;20419;-72
2021/11/09 03:49:44;;;;;;;18.10;11.07;;;;;;;5.96;65.65;97469.13;5064064;28;20439;-74
2021/11/09 03:52:21;;;;;;;19.80;10.97;;;;;;;5.95;65.81;97470.09;5101372;28;20412;-74
2021/11/09 03:54:51;;;;;;;19.10;10.57;;;;;;;5.94;65.51;97468.41;5111732;28;20457;-73
2021/11/09 04:07:33;;;;;;;18.00;10.43;;;;;;;5.72;65.33;97479.63;5113582;28;20415;-74
2021/11/09 04:12:50;;;;;;;28.23;11.87;;;;;;;5.61;65.06;97482.19;5112311;28;20415;-74
2021/11/09 04:18:06;;;;;;;15.43;10.07;;;;;;;5.51;65.43;97485.47;5111880;28;20456;-73
2021/11/09 05:10:48;;;;;;;14.37;9.10;;;;;;;5.30;65.82;97480.09;5115678;28;20469;-75
2021/11/09 05:13:14;;;;;;;39.40;24.07;;;;;;;5.28;65.50;97484.59;5128310;28;20420;-75
2021/11/09 05:15:40;;;;;;;18.80;11.20;;;;;;;5.33;65.15;97484.25;5106584;28;20404;-75
2021/11/09 05:18:06;;;;;;;18.83;9.67;;;;;;;5.34;65.06;97484.13;5094175;28;20453;-76
2021/11/09 05:20:32;;;;;;;19.07;10.33;;;;;;;5.33;64.90;97490.25;5091298;28;20447;-76
2021/11/09 05:22:58;;;;;;;17.13;10.43;;;;;;;5.32;65.05;97491.19;5095445;28;20238;-77
2021/11/09 05:25:25;;;;;;;16.13;9.20;;;;;;;5.33;65.57;97489.44;5114046;28;20441;-75
2021/11/09 05:27:51;;;;;;;18.67;9.77;;;;;;;5.30;65.02;97485.28;5098399;28;20494;-76
2021/11/09 05:30:17;;;;;;;18.10;10.07;;;;;;;5.32;65.44;97492.97;5104977;28;20427;-75
2021/11/09 05:32:45;;;;;;;17.50;10.07;;;;;;;5.31;65.19;97494.75;5095077;28;20424;-75
2021/11/09 05:35:11;;;;;;;17.27;9.60;;;;;;;5.31;64.82;97492.13;5105043;28;20423;-75
2021/11/09 05:37:44;;;;;;;18.03;9.30;;;;;;;5.29;64.92;97501.84;5102790;28;20428;-75
2021/11/09 05:40:10;;;;;;;14.10;9.37;;;;;;;5.23;64.80;97494.47;5077858;28;20205;-75
2021/11/09 05:42:36;;;;;;;22.63;9.53;;;;;;;5.21;64.74;97496.34;5074575;28;20523;-75
2021/11/09 05:45:06;;;;;;;19.70;10.27;;;;;;;5.22;64.76;97492.81;5087422;28;20460;-75
2021/11/09 05:47:32;;;;;;;20.67;10.60;;;;;;;5.19;65.22;97493.03;5090580;28;20190;-76
2021/11/09 05:49:57;;;;;;;21.23;10.10;;;;;;;5.21;64.99;97491.16;5059891;28;20428;-76
2021/11/09 05:52:23;;;;;;;16.30;9.70;;;;;;;5.22;64.79;97501.47;5077051;28;20259;-77
2021/11/09 05:54:49;;;;;;;17.03;9.53;;;;;;;5.22;64.69;97498.00;5082418;28;20271;-77
2021/11/09 05:57:15;;;;;;;20.30;9.07;;;;;;;5.13;64.43;97496.09;5084499;28;20291;-76
2021/11/09 05:59:41;;;;;;;14.03;8.83;;;;;;;5.06;64.91;97500.91;5082030;28;20208;-76
2021/11/09 06:02:06;;;;;;;14.67;8.93;;;;;;;5.03;64.98;97496.75;5060550;28;20186;-76
2021/11/09 06:04:32;;;;;;;17.23;9.43;;;;;;;5.05;64.94;97505.25;5080915;28;20907;-76
2021/11/09 06:06:58;;;;;;;21.17;9.17;;;;;;;5.05;64.68;97501.84;5074087;28;20182;-76
2021/11/09 06:09:24;;;;;;;19.00;9.57;;;;;;;5.07;65.17;97505.97;5078497;28;20277;-76
2021/11/09 06:11:49;;;;;;;18.00;9.63;;;;;;;5.07;64.43;97497.38;5078316;28;20192;-76
2021/11/09 06:14:15;;;;;;;21.07;9.13;;;;;;;5.08;64.58;97505.03;5079364;28;20207;-76
2021/11/09 06:16:40;;;;;;;13.93;8.53;;;;;;;5.07;65.11;97502.56;5084972;28;20183;-75
2021/11/09 06:19:06;;;;;;;15.90;9.53;;;;;;;5.08;64.75;97512.03;5083462;28;20563;-76
2021/11/09 06:21:33;;;;;;;19.30;9.90;;;;;;;5.07;64.68;97508.56;5050078;28;20252;-76
2021/11/09 06:23:58;;;;;;;17.93;10.50;;;;;;;5.06;64.32;97519.91;5009082;28;20426;-75
2021/11/09 06:26:25;;;;;;;21.30;9.33;;;;;;;5.07;64.41;97518.97;5021656;28;20433;-75
2021/11/09 06:28:55;;;;;;;18.20;9.13;;;;;;;5.10;65.07;97519.69;5030183;28;20197;-75
2021/11/09 06:31:21;;;;;;;21.27;10.40;;;;;;;5.13;64.91;97522.88;5082966;28;20425;-76
2021/11/09 06:33:46;;;;;;;16.50;9.37;;;;;;;5.17;65.03;97526.09;5075009;28;20431;-77
2021/11/09 06:36:12;;;;;;;21.87;10.50;;;;;;;5.22;64.72;97526.59;5093091;28;20194;-75
2021/11/09 06:38:37;;;;;;;20.87;10.37;;;;;;;5.17;65.07;97526.94;5089380;28;20206;-75
2021/11/09 06:41:03;;;;;;;21.07;10.03;;;;;;;5.28;65.57;97530.53;5097091;28;20308;-75
2021/11/09 06:43:30;;;;;;;22.50;11.50;;;;;;;5.30;65.28;97534.66;5103106;28;20201;-75
2021/11/09 06:45:56;;;;;;;24.53;11.40;;;;;;;5.35;65.15;97535.19;5085869;28;20190;-74
2021/11/09 06:48:24;;;;;;;22.70;11.80;;;;;;;5.52;66.91;97533.94;5077562;28;20489;-75
2021/11/09 06:50:50;;;;;;;22.60;12.40;;;;;;;5.49;64.85;97546.34;5070442;28;20424;-74
2021/11/09 06:53:16;;;;;;;19.43;11.00;;;;;;;5.31;64.67;97533.72;5071679;28;20473;-77
2021/11/09 06:55:42;;;;;;;24.40;9.80;;;;;;;5.28;64.70;97539.16;5087372;28;20679;-70
2021/11/09 06:58:08;;;;;;;21.80;10.40;;;;;;;5.34;64.29;97543.09;5091923;28;20443;-70
2021/11/09 07:00:34;;;;;;;19.50;10.97;;;;;;;5.29;64.28;97535.63;5073665;28;20536;-69
2021/11/09 07:03:00;;;;;;;23.40;11.00;;;;;;;5.21;64.19;97537.94;5084154;28;20448;-69
2021/11/09 07:05:26;;;;;;;24.93;10.47;;;;;;;5.14;64.68;97541.94;5089578;28;20424;-69
2021/11/09 07:07:52;;;;;;;18.17;10.20;;;;;;;5.20;64.94;97541.47;5070950;28;20318;-68
2021/11/09 07:10:18;;;;;;;16.70;9.67;;;;;;;5.29;64.54;97546.03;5071555;28;20182;-68
2021/11/09 07:12:44;;;;;;;19.13;9.10;;;;;;;5.36;64.88;97549.84;5067716;28;20496;-69
2021/11/09 07:15:11;;;;;;;14.67;9.40;;;;;;;5.53;64.94;97555.59;5072550;28;20174;-67
2021/11/09 07:17:39;;;;;;;19.80;9.37;;;;;;;5.59;64.62;97556.91;5072889;28;20470;-68
2021/11/09 07:20:10;;;;;;;15.77;9.20;;;;;;;5.66;64.88;97565.91;5074182;28;20995;-69
2021/11/09 07:22:35;;;;;;;19.80;10.10;;;;;;;5.76;65.14;97581.69;5078865;28;20416;-67
2021/11/09 07:25:02;;;;;;;16.43;10.53;;;;;;;5.80;64.44;97576.13;5070962;28;20843;-70
2021/11/09 07:27:27;;;;;;;21.00;10.40;;;;;;;5.96;64.85;97575.00;5075406;28;20202;-72
2021/11/09 07:29:53;;;;;;;22.00;11.43;;;;;;;6.02;64.10;97584.16;5095021;28;20484;-71
2021/11/09 07:32:21;;;;;;;20.00;10.83;;;;;;;6.11;64.63;97573.03;5040421;28;20247;-68
2021/11/09 07:34:47;;;;;;;18.70;10.43;;;;;;;6.23;64.26;97581.72;5061477;28;20184;-66
2021/11/09 07:37:13;;;;;;;15.57;9.10;;;;;;;6.33;64.03;97579.22;5069387;28;20424;-68
2021/11/09 07:39:39;;;;;;;20.70;8.70;;;;;;;6.42;64.04;97583.75;5070352;28;20835;-69
2021/11/09 07:42:06;;;;;;;18.87;9.37;;;;;;;6.55;64.04;97581.84;5071965;28;20182;-69
2021/11/09 07:44:31;;;;;;;18.40;8.23;;;;;;;6.67;64.06;97589.69;5065761;28;20421;-69
2021/11/09 07:46:57;;;;;;;17.17;8.53;;;;;;;6.69;63.60;97583.41;5067865;28;20437;-71
2021/11/09 07:49:23;;;;;;;13.73;7.80;;;;;;;6.74;64.11;97596.06;5069227;28;20198;-69
2021/11/09 07:51:49;;;;;;;13.70;8.20;;;;;;;6.86;63.12;97587.31;5071437;28;20259;-69
2021/11/09 07:54:18;;;;;;;15.57;7.37;;;;;;;6.98;63.51;97585.53;5066972;28;20188;-69
2021/11/09 07:56:44;;;;;;;14.43;8.03;;;;;;;7.00;61.83;97590.63;5065591;28;20425;-69
2021/11/09 08:04:28;;;;;;;15.20;8.20;;;;;;;7.10;62.30;97588.13;5078752;28;20199;-72
2021/11/09 08:06:59;;;;;;;13.33;8.57;;;;;;;7.12;62.16;97592.25;5067888;28;20780;-70
2021/11/09 08:09:29;;;;;;;25.33;7.90;;;;;;;7.14;61.86;97592.97;5068019;28;20447;-68
2021/11/09 08:11:56;;;;;;;16.33;9.50;;;;;;;7.16;60.92;97593.69;5095288;28;20423;-67
2021/11/09 08:14:22;;;;;;;14.40;8.87;;;;;;;7.32;61.41;97595.03;5097904;28;20420;-66
2021/11/09 08:16:48;;;;;;;17.87;8.60;;;;;;;7.28;61.64;97593.66;5092147;28;20443;-66
2021/11/09 08:19:15;;;;;;;25.90;8.80;;;;;;;7.45;60.80;97587.91;5082845;28;20247;-67
2021/11/09 08:21:41;;;;;;;20.70;9.27;;;;;;;7.62;61.17;97601.38;5091013;28;20452;-65
2021/11/09 08:24:11;;;;;;;17.00;8.80;;;;;;;7.68;60.67;97593.88;5072567;28;20440;-66
2021/11/09 08:26:37;;;;;;;17.27;8.40;;;;;;;7.60;60.18;97598.91;5084363;28;20427;-68
2021/11/09 08:29:04;;;;;;;25.00;8.10;;;;;;;7.78;60.55;97590.50;5091822;28;20452;-68
2021/11/09 08:31:32;;;;;;;11.10;7.67;;;;;;;7.79;59.74;97590.41;5085097;28;20416;-65
2021/11/09 08:33:59;;;;;;;21.77;8.60;;;;;;;7.43;60.13;97586.38;5082328;28;20565;-69
2021/11/09 08:36:28;;;;;;;13.13;7.60;;;;;;;6.63;61.93;97593.47;5074651;28;20433;-70
2021/11/09 08:38:56;;;;;;;16.60;8.33;;;;;;;6.82;62.15;97598.91;5081563;28;20813;-68
2021/11/09 08:41:27;;;;;;;14.60;8.50;;;;;;;7.19;61.24;97597.81;5085036;28;20444;-68
2021/11/09 08:46:30;;;;;;;19.50;10.30;;;;;;;7.81;59.91;97591.09;5060383;28;20430;-67
2021/11/09 08:48:56;;;;;;;15.07;10.33;;;;;;;8.09;60.27;97588.00;5076047;28;20452;-68
2021/11/09 08:51:22;;;;;;;16.57;10.40;;;;;;;8.19;59.40;97590.69;5084026;28;20887;-69
2021/11/09 08:53:58;;;;;;;15.67;9.50;;;;;;;8.23;59.76;97585.09;5076900;28;20286;-69
2021/11/09 09:04:18;;;;;;;17.30;8.40;;;;;;;8.33;58.05;97590.34;5071793;28;20470;-69
2021/11/09 09:06:52;;;;;;;13.50;8.00;;;;;;;8.60;56.71;97582.00;5074374;28;20628;-68
2021/11/09 09:09:18;;;;;;;13.50;7.00;;;;;;;8.96;55.46;97576.34;5068648;28;20533;-67
2021/11/09 09:11:46;;;;;;;11.63;7.40;;;;;;;8.62;56.62;97584.47;5084417;28;20455;-68
2021/11/09 09:14:12;;;;;;;11.63;7.43;;;;;;;8.86;56.47;97575.50;5091392;28;20428;-68
2021/11/09 09:16:40;;;;;;;15.60;7.27;;;;;;;8.62;56.67;97583.66;5090890;28;20520;-66
2021/11/09 09:19:05;;;;;;;14.40;8.23;;;;;;;8.97;56.08;97582.41;5086644;28;20444;-66
2021/11/09 09:24:24;;;;;;;13.57;7.40;;;;;;;8.91;55.08;97578.56;5091351;28;20911;-67
2021/11/09 09:32:20;;;;;;;14.63;6.30;;;;;;;9.58;53.92;97570.94;5093007;28;20181;-67
2021/11/09 09:54:40;;;;;;;12.07;6.10;;;;;;;9.43;54.16;97575.75;5091102;28;20984;-67
2021/11/09 09:56:52;;;;;;;16.80;6.37;;;;;;;9.58;52.81;97578.00;5091051;28;20439;-68
2021/11/09 09:59:23;;;;;;;8.87;5.27;;;;;;;9.16;54.35;97577.22;5089195;28;20470;-68
2021/11/09 10:02:12;;;;;;;10.20;5.03;;;;;;;9.62;52.74;97577.56;5089354;28;20268;-69
2021/11/09 10:04:51;;;;;;;16.63;4.73;;;;;;;9.67;52.85;97575.38;5077791;28;20471;-69
2021/11/09 10:07:43;;;;;;;11.63;5.10;;;;;;;10.10;51.82;97577.69;5058240;28;20415;-68
2021/11/09 10:10:09;;;;;;;13.67;5.10;;;;;;;9.64;52.60;97572.22;5078979;28;20416;-67
2021/11/09 10:12:35;;;;;;;9.10;4.83;;;;;;;9.77;51.92;97577.97;5091493;28;20470;-69
2021/11/09 10:15:06;;;;;;;6.70;4.23;;;;;;;9.87;52.58;97587.66;5084080;28;20288;-68
2021/11/09 10:17:32;;;;;;;7.23;4.10;;;;;;;9.98;51.60;97575.22;5087724;28;21145;-66
2021/11/09 10:19:59;;;;;;;16.27;4.40;;;;;;;10.02;51.25;97582.81;5086251;28;20444;-66
2021/11/09 10:22:29;;;;;;;12.17;4.10;;;;;;;9.53;51.73;97570.56;5076147;28;20453;-68
2021/11/09 10:25:16;;;;;;;8.30;4.50;;;;;;;9.84;51.36;97567.78;5085195;28;20428;-69
2021/11/09 10:27:43;;;;;;;12.27;4.40;;;;;;;10.18;51.11;97574.38;5094317;28;20427;-67
2021/11/09 10:30:31;;;;;;;7.80;5.00;;;;;;;10.37;50.38;97570.88;5094010;28;20427;-68
2021/11/09 10:32:57;;;;;;;13.60;7.00;;;;;;;10.46;50.84;97567.44;5085641;28;20750;-68
2021/11/09 10:35:24;;;;;;;10.07;6.63;;;;;;;10.51;51.03;97569.66;5094139;28;20416;-69
2021/11/09 10:37:52;;;;;;;11.10;7.23;;;;;;;10.47;50.82;97571.69;5094192;28;20649;-69
2021/11/09 10:40:23;;;;;;;15.47;7.10;;;;;;;10.80;51.57;97561.66;5081121;28;20451;-67
2021/11/09 10:43:01;;;;;;;16.47;7.23;;;;;;;10.78;50.02;97558.34;5091251;28;20427;-69
2021/11/09 10:45:30;;;;;;;11.43;5.60;;;;;;;10.51;51.35;97546.88;5087057;28;20495;-68
2021/11/09 10:47:58;;;;;;;11.53;5.03;;;;;;;10.88;50.51;97548.66;5086030;28;20417;-67
2021/11/09 10:50:36;;;;;;;11.20;6.03;;;;;;;11.07;50.25;97560.03;5093333;28;20424;-68
2021/11/09 10:53:10;;;;;;;10.87;6.77;;;;;;;10.77;49.24;97555.91;5089989;28;20419;-68
2021/11/09 10:55:49;;;;;;;11.03;5.90;;;;;;;10.63;49.67;97559.78;5083051;28;20427;-67
2021/11/09 11:06:27;;;;;;;8.07;4.00;;;;;;;10.65;48.93;97542.13;5079430;28;20178;-68
2021/11/09 11:09:22;;;;;;;8.10;4.40;;;;;;;10.78;48.24;97547.88;5093267;28;21033;-67
2021/11/09 11:11:50;;;;;;;9.33;4.27;;;;;;;10.96;47.90;97554.97;5082485;28;20440;-69
2021/11/09 11:14:23;;;;;;;8.50;4.50;;;;;;;10.79;47.41;97546.91;5073918;28;20420;-67
2021/11/09 11:16:55;;;;;;;12.00;4.17;;;;;;;11.19;46.96;97545.72;5078359;28;20436;-70
2021/11/09 11:19:25;;;;;;;15.60;4.30;;;;;;;11.27;46.69;97541.53;5074547;28;20856;-68
2021/11/09 11:21:51;;;;;;;11.30;4.57;;;;;;;11.03;47.40;97541.09;5077968;28;20448;-67
2021/11/09 11:24:17;;;;;;;11.60;3.97;;;;;;;11.24;46.25;97539.19;5074326;28;20430;-67
2021/11/09 11:26:45;;;;;;;8.40;3.93;;;;;;;11.02;46.52;97538.63;5092467;28;20393;-68
2021/11/09 11:29:16;;;;;;;8.50;4.20;;;;;;;11.30;46.05;97531.53;5090385;28;20444;-67
2021/11/09 11:31:42;;;;;;;6.70;3.70;;;;;;;11.03;46.54;97532.41;5090610;28;20520;-67
2021/11/09 11:34:07;;;;;;;7.87;3.87;;;;;;;11.56;44.84;97524.75;5091158;28;20704;-68
2021/11/09 11:36:33;;;;;;;10.97;3.97;;;;;;;11.66;45.68;97523.66;5090840;28;20810;-67
2021/11/09 11:39:04;;;;;;;12.00;6.70;;;;;;;11.53;45.69;97510.94;5089766;28;20220;-67
2021/11/09 11:41:32;;;;;;;6.20;3.70;;;;;;;11.69;44.77;97512.06;5069405;28;20197;-68
2021/11/09 11:44:00;;;;;;;8.53;4.03;;;;;;;11.75;43.62;97511.44;5092299;28;20949;-68
2021/11/09 11:46:37;;;;;;;11.97;4.50;;;;;;;11.91;44.53;97502.84;5091326;28;20519;-69
2021/11/09 11:49:15;;;;;;;9.03;3.33;;;;;;;11.95;43.44;97490.25;5081158;28;20993;-70
2021/11/09 11:52:02;;;;;;;6.87;2.87;;;;;;;11.82;43.41;97494.09;5093199;28;20423;-67
2021/11/09 11:54:54;;;;;;;11.47;3.43;;;;;;;12.23;42.53;97493.56;5091799;28;20660;-67
2021/11/09 11:57:31;;;;;;;4.43;3.20;;;;;;;11.99;42.55;97494.22;5083967;28;21053;-67
2021/11/09 11:59:57;;;;;;;6.20;3.30;;;;;;;12.04;42.50;97485.88;5071929;28;20517;-68
2021/11/09 12:02:36;;;;;;;10.17;3.60;;;;;;;12.19;42.56;97491.41;5092864;28;20450;-67
2021/11/09 12:05:02;;;;;;;6.37;3.30;;;;;;;12.18;42.63;97487.13;5087503;28;20480;-68
2021/11/09 12:07:52;;;;;;;7.30;3.30;;;;;;;12.62;41.58;97480.94;5061928;28;20443;-68
2021/11/09 12:10:18;;;;;;;9.50;3.20;;;;;;;12.63;41.12;97491.28;5091450;28;20420;-67
2021/11/09 12:12:59;;;;;;;8.07;4.20;;;;;;;12.69;41.29;97493.28;5093382;28;20446;-67
2021/11/09 12:15:52;;;;;;;6.30;3.47;;;;;;;12.70;41.40;97502.00;5081473;28;20423;-67
2021/11/09 12:18:27;;;;;;;8.60;4.57;;;;;;;12.51;41.33;97493.38;5085115;28;20429;-69
2021/11/09 12:20:53;;;;;;;7.37;3.57;;;;;;;12.54;41.51;97497.50;5076004;28;20523;-70
2021/11/09 12:23:21;;;;;;;8.70;3.17;;;;;;;12.77;40.54;97491.66;5084712;28;20507;-69
2021/11/09 12:25:49;;;;;;;4.50;3.03;;;;;;;12.53;41.15;97498.47;5093309;28;20477;-69
2021/11/09 12:28:16;;;;;;;8.60;3.33;;;;;;;12.43;41.40;97493.34;5092153;28;20527;-69
2021/11/09 12:30:44;;;;;;;6.17;3.20;;;;;;;13.04;40.29;97482.72;5092908;28;20515;-67
2021/11/09 12:33:22;;;;;;;7.10;3.20;;;;;;;12.62;41.65;97483.56;5089736;28;20977;-71
2021/11/09 12:36:11;;;;;;;13.33;3.53;;;;;;;13.29;40.58;97475.69;5086995;28;20447;-66
2021/11/09 12:38:43;;;;;;;5.57;3.10;;;;;;;13.00;40.52;97471.66;5066197;28;20922;-68
2021/11/09 12:41:13;;;;;;;8.20;3.30;;;;;;;13.53;39.12;97476.72;5087965;28;20464;-65
2021/11/09 12:43:42;;;;;;;9.10;3.07;;;;;;;13.23;39.85;97475.50;5091124;28;20463;-66
2021/11/09 12:46:09;;;;;;;9.50;3.57;;;;;;;13.50;38.66;97474.38;5070473;28;20413;-65
2021/11/09 12:48:40;;;;;;;5.43;2.90;;;;;;;13.75;38.40;97475.22;5071712;28;20492;-65
2021/11/09 12:51:12;;;;;;;5.77;3.23;;;;;;;13.74;38.97;97470.94;5068319;28;20437;-64
2021/11/09 12:53:45;;;;;;;5.47;3.40;;;;;;;14.41;37.00;97455.81;5069010;28;20421;-67
2021/11/09 12:56:17;;;;;;;10.10;3.60;;;;;;;15.25;36.21;97459.69;5065999;28;20806;-67
2021/11/09 12:58:50;;;;;;;5.60;2.80;;;;;;;15.55;35.70;97460.63;5062690;28;20503;-69
2021/11/09 13:04:04;;;;;;;5.77;2.53;;;;;;;16.10;34.97;97458.66;5070027;28;20511;-68
2021/11/09 13:06:36;;;;;;;14.77;6.53;;;;;;;16.17;34.46;97460.56;5064755;28;20763;-66
2021/11/09 13:09:06;;;;;;;14.43;4.07;;;;;;;16.17;34.43;97463.19;5058062;28;20450;-69
2021/11/09 13:11:38;;;;;;;6.30;3.20;;;;;;;16.32;33.86;97460.56;5062089;28;20440;-66
2021/11/09 13:14:07;;;;;;;7.30;3.10;;;;;;;17.15;32.31;97449.75;5068311;28;20918;-67
2021/11/09 13:16:33;;;;;;;10.60;3.60;;;;;;;16.66;32.52;97446.75;5083164;28;20420;-68
2021/11/09 13:19:04;;;;;;;6.83;3.67;;;;;;;16.54;33.11;97450.88;5069874;28;20472;-69
2021/11/09 13:21:30;;;;;;;4.13;2.73;;;;;;;17.57;31.83;97437.50;5068446;28;20683;-68
2021/11/09 13:23:56;;;;;;;8.23;3.23;;;;;;;17.23;31.65;97446.16;5076396;28;20426;-67
2021/11/09 13:26:21;;;;;;;6.07;3.60;;;;;;;17.02;31.88;97445.94;5086580;28;20439;-67
2021/11/09 13:28:47;;;;;;;7.67;3.53;;;;;;;16.68;32.69;97449.22;5078955;28;20247;-66
2021/11/09 13:31:13;;;;;;;7.33;3.13;;;;;;;17.22;31.54;97434.75;5085501;28;20174;-71
2021/11/09 13:33:41;;;;;;;8.50;3.10;;;;;;;18.07;30.44;97431.34;5066629;28;20232;-68
2021/11/09 13:36:07;;;;;;;6.33;2.97;;;;;;;17.39;31.29;97437.16;5090719;28;20965;-69
2021/11/09 13:38:37;;;;;;;9.23;3.20;;;;;;;18.34;29.84;97442.13;5093287;28;20468;-65
2021/11/09 13:41:14;;;;;;;5.23;2.90;;;;;;;16.45;33.00;97450.16;5086922;28;20448;-67
2021/11/09 13:43:47;;;;;;;8.13;3.70;;;;;;;15.18;34.53;97449.81;5064083;28;20435;-66
2021/11/09 13:46:19;;;;;;;9.17;3.77;;;;;;;14.77;35.39;97444.78;5096941;28;20857;-67
2021/11/09 13:48:50;;;;;;;9.40;3.30;;;;;;;13.65;37.30;97442.97;5087576;28;20468;-67
2021/11/09 13:51:20;;;;;;;6.70;3.27;;;;;;;13.48;38.31;97447.44;5077431;28;20420;-67
2021/11/09 13:53:50;;;;;;;8.27;3.30;;;;;;;12.95;40.24;97431.88;5093628;28;20427;-67
2021/11/09 13:56:23;;;;;;;7.93;3.13;;;;;;;12.63;39.67;97432.63;5075157;28;20430;-68
2021/11/09 13:59:05;;;;;;;5.40;3.30;;;;;;;12.50;40.07;97427.81;5084062;28;20963;-68
2021/11/09 14:01:39;;;;;;;7.77;3.97;;;;;;;12.14;40.89;97434.09;5096028;28;20931;-66
2021/11/09 14:17:04;;;;;;;7.90;3.83;;;;;;;12.01;41.60;97431.06;5109185;28;20419;-67